sensor_id;sensor_type;location;lat;lon;timestamp;temperature;humidity
12874;DHT22;6505;51.114;13.128;2023-05-07T00:00:30;17.30;61.90
12874;DHT22;6505;51.114;13.128;2023-05-07T00:03:00;17.30;62.00
12874;DHT22;6505;51.114;13.128;2023-05-07T00:05:28;17.30;62.00
12874;DHT22;6505;51.114;13.128;2023-05-07T00:07:57;17.20;61.90
12874;DHT22;6505;51.114;13.128;2023-05-07T00:10:25;17.20;61.90
12874;DHT22;6505;51.114;13.128;2023-05-07T00:12:53;17.20;61.80
12874;DHT22;6505;51.114;13.128;2023-05-07T00:15:23;17.20;61.90
12874;DHT22;6505;51.114;13.128;2023-05-07T00:17:51;17.20;61.90
12874;DHT22;6505;51.114;13.128;2023-05-07T00:20:19;17.10;62.10
12874;DHT22;6505;51.114;13.128;2023-05-07T00:22:46;17.10;62.30
12874;DHT22;6505;51.114;13.128;2023-05-07T00:25:14;17.10;62.50
12874;DHT22;6505;51.114;13.128;2023-05-07T00:27:42;17.10;62.60
12874;DHT22;6505;51.114;13.128;2023-05-07T00:30:11;17.00;62.60
12874;DHT22;6505;51.114;13.128;2023-05-07T00:32:40;17.10;62.70
12874;DHT22;6505;51.114;13.128;2023-05-07T00:35:09;17.00;62.90
12874;DHT22;6505;51.114;13.128;2023-05-07T00:37:37;17.00;62.80
12874;DHT22;6505;51.114;13.128;2023-05-07T00:40:06;17.00;62.90
12874;DHT22;6505;51.114;13.128;2023-05-07T00:42:35;17.00;63.20
12874;DHT22;6505;51.114;13.128;2023-05-07T00:45:04;17.00;62.80
12874;DHT22;6505;51.114;13.128;2023-05-07T00:47:34;17.00;63.00
12874;DHT22;6505;51.114;13.128;2023-05-07T00:50:04;17.10;62.60
12874;DHT22;6505;51.114;13.128;2023-05-07T00:52:34;17.00;62.60
12874;DHT22;6505;51.114;13.128;2023-05-07T00:55:05;17.00;62.40
12874;DHT22;6505;51.114;13.128;2023-05-07T00:57:36;17.00;62.40
12874;DHT22;6505;51.114;13.128;2023-05-07T01:00:07;16.90;62.20
12874;DHT22;6505;51.114;13.128;2023-05-07T01:02:36;17.00;62.50
12874;DHT22;6505;51.114;13.128;2023-05-07T01:05:09;17.00;62.30
12874;DHT22;6505;51.114;13.128;2023-05-07T01:07:45;16.90;62.30
12874;DHT22;6505;51.114;13.128;2023-05-07T01:10:15;16.90;62.40
12874;DHT22;6505;51.114;13.128;2023-05-07T01:12:44;17.00;62.50
12874;DHT22;6505;51.114;13.128;2023-05-07T01:15:14;16.90;62.40
12874;DHT22;6505;51.114;13.128;2023-05-07T01:17:43;17.00;62.40
12874;DHT22;6505;51.114;13.128;2023-05-07T01:20:19;17.00;62.40
12874;DHT22;6505;51.114;13.128;2023-05-07T01:22:51;17.00;62.30
12874;DHT22;6505;51.114;13.128;2023-05-07T01:25:20;17.00;62.40
12874;DHT22;6505;51.114;13.128;2023-05-07T01:27:54;17.00;62.40
12874;DHT22;6505;51.114;13.128;2023-05-07T01:30:27;16.90;62.40
12874;DHT22;6505;51.114;13.128;2023-05-07T01:33:01;16.90;62.40
12874;DHT22;6505;51.114;13.128;2023-05-07T01:35:36;16.90;62.40
12874;DHT22;6505;51.114;13.128;2023-05-07T01:38:09;17.00;62.40
12874;DHT22;6505;51.114;13.128;2023-05-07T01:40:37;17.00;62.40
12874;DHT22;6505;51.114;13.128;2023-05-07T01:43:06;17.00;62.40
12874;DHT22;6505;51.114;13.128;2023-05-07T01:45:36;17.00;62.50
12874;DHT22;6505;51.114;13.128;2023-05-07T01:48:05;16.90;62.20
12874;DHT22;6505;51.114;13.128;2023-05-07T01:50:34;16.90;62.30
12874;DHT22;6505;51.114;13.128;2023-05-07T01:53:04;17.00;62.40
12874;DHT22;6505;51.114;13.128;2023-05-07T01:55:33;16.90;62.00
12874;DHT22;6505;51.114;13.128;2023-05-07T01:58:03;16.90;62.10
12874;DHT22;6505;51.114;13.128;2023-05-07T02:00:31;17.00;62.20
12874;DHT22;6505;51.114;13.128;2023-05-07T02:02:59;16.90;62.30
12874;DHT22;6505;51.114;13.128;2023-05-07T02:05:39;16.90;61.90
12874;DHT22;6505;51.114;13.128;2023-05-07T02:08:14;16.90;61.80
12874;DHT22;6505;51.114;13.128;2023-05-07T02:10:43;16.90;61.60
12874;DHT22;6505;51.114;13.128;2023-05-07T02:13:11;16.90;61.60
12874;DHT22;6505;51.114;13.128;2023-05-07T02:15:39;16.80;61.60
12874;DHT22;6505;51.114;13.128;2023-05-07T02:18:08;16.80;61.60
12874;DHT22;6505;51.114;13.128;2023-05-07T02:20:37;16.80;61.80
12874;DHT22;6505;51.114;13.128;2023-05-07T02:23:05;16.80;62.00
12874;DHT22;6505;51.114;13.128;2023-05-07T02:25:33;16.80;62.10
12874;DHT22;6505;51.114;13.128;2023-05-07T02:28:02;16.80;62.10
12874;DHT22;6505;51.114;13.128;2023-05-07T02:30:43;16.70;61.90
12874;DHT22;6505;51.114;13.128;2023-05-07T02:33:11;16.80;62.00
12874;DHT22;6505;51.114;13.128;2023-05-07T02:35:41;16.80;62.20
12874;DHT22;6505;51.114;13.128;2023-05-07T02:38:10;16.80;62.40
12874;DHT22;6505;51.114;13.128;2023-05-07T02:40:39;16.80;62.20
12874;DHT22;6505;51.114;13.128;2023-05-07T02:43:09;16.80;62.00
12874;DHT22;6505;51.114;13.128;2023-05-07T02:45:39;16.70;61.80
12874;DHT22;6505;51.114;13.128;2023-05-07T02:48:07;16.80;62.00
12874;DHT22;6505;51.114;13.128;2023-05-07T02:50:35;16.80;61.90
12874;DHT22;6505;51.114;13.128;2023-05-07T02:53:03;16.70;61.80
12874;DHT22;6505;51.114;13.128;2023-05-07T02:55:32;16.70;61.80
12874;DHT22;6505;51.114;13.128;2023-05-07T02:58:00;16.80;61.80
12874;DHT22;6505;51.114;13.128;2023-05-07T03:00:33;16.80;61.90
12874;DHT22;6505;51.114;13.128;2023-05-07T03:03:14;16.80;61.50
12874;DHT22;6505;51.114;13.128;2023-05-07T03:05:42;16.70;61.90
12874;DHT22;6505;51.114;13.128;2023-05-07T03:08:10;16.70;61.60
12874;DHT22;6505;51.114;13.128;2023-05-07T03:10:38;16.70;61.80
12874;DHT22;6505;51.114;13.128;2023-05-07T03:13:06;16.70;61.90
12874;DHT22;6505;51.114;13.128;2023-05-07T03:15:36;16.60;61.90
12874;DHT22;6505;51.114;13.128;2023-05-07T03:18:04;16.60;62.00
12874;DHT22;6505;51.114;13.128;2023-05-07T03:20:32;16.70;61.90
12874;DHT22;6505;51.114;13.128;2023-05-07T03:23:00;16.60;61.90
12874;DHT22;6505;51.114;13.128;2023-05-07T03:25:28;16.60;62.10
12874;DHT22;6505;51.114;13.128;2023-05-07T03:27:57;16.70;62.00
12874;DHT22;6505;51.114;13.128;2023-05-07T03:30:33;16.70;62.10
12874;DHT22;6505;51.114;13.128;2023-05-07T03:33:02;16.70;61.80
12874;DHT22;6505;51.114;13.128;2023-05-07T03:35:31;16.70;62.10
12874;DHT22;6505;51.114;13.128;2023-05-07T03:38:01;16.60;62.10
12874;DHT22;6505;51.114;13.128;2023-05-07T03:40:32;16.70;62.20
12874;DHT22;6505;51.114;13.128;2023-05-07T03:43:02;16.60;62.00
12874;DHT22;6505;51.114;13.128;2023-05-07T03:45:31;16.60;62.10
12874;DHT22;6505;51.114;13.128;2023-05-07T03:48:21;16.60;62.40
12874;DHT22;6505;51.114;13.128;2023-05-07T03:50:51;16.60;62.30
12874;DHT22;6505;51.114;13.128;2023-05-07T03:53:20;16.60;62.40
12874;DHT22;6505;51.114;13.128;2023-05-07T03:55:48;16.50;62.30
12874;DHT22;6505;51.114;13.128;2023-05-07T03:58:17;16.50;62.40
12874;DHT22;6505;51.114;13.128;2023-05-07T04:00:45;16.50;62.60
12874;DHT22;6505;51.114;13.128;2023-05-07T04:03:22;16.50;62.70
12874;DHT22;6505;51.114;13.128;2023-05-07T04:05:51;16.50;62.70
12874;DHT22;6505;51.114;13.128;2023-05-07T04:08:19;16.40;62.80
12874;DHT22;6505;51.114;13.128;2023-05-07T04:10:54;16.50;62.90
12874;DHT22;6505;51.114;13.128;2023-05-07T04:13:25;16.50;63.10
12874;DHT22;6505;51.114;13.128;2023-05-07T04:15:55;16.50;63.10
12874;DHT22;6505;51.114;13.128;2023-05-07T04:18:25;16.50;63.30
12874;DHT22;6505;51.114;13.128;2023-05-07T04:20:54;16.50;63.20
12874;DHT22;6505;51.114;13.128;2023-05-07T04:23:22;16.50;63.10
12874;DHT22;6505;51.114;13.128;2023-05-07T04:25:51;16.50;63.10
12874;DHT22;6505;51.114;13.128;2023-05-07T04:28:27;16.50;63.10
12874;DHT22;6505;51.114;13.128;2023-05-07T04:30:57;16.50;63.10
12874;DHT22;6505;51.114;13.128;2023-05-07T04:33:27;16.60;63.30
12874;DHT22;6505;51.114;13.128;2023-05-07T04:35:57;16.50;63.10
12874;DHT22;6505;51.114;13.128;2023-05-07T04:38:29;16.50;63.10
12874;DHT22;6505;51.114;13.128;2023-05-07T04:41:03;16.50;63.00
12874;DHT22;6505;51.114;13.128;2023-05-07T04:43:34;16.50;63.10
12874;DHT22;6505;51.114;13.128;2023-05-07T04:46:02;16.50;63.20
12874;DHT22;6505;51.114;13.128;2023-05-07T04:48:32;16.60;63.40
12874;DHT22;6505;51.114;13.128;2023-05-07T04:51:01;16.50;63.40
12874;DHT22;6505;51.114;13.128;2023-05-07T04:53:30;16.60;63.30
12874;DHT22;6505;51.114;13.128;2023-05-07T04:55:58;16.50;63.30
12874;DHT22;6505;51.114;13.128;2023-05-07T04:58:32;16.50;63.20
12874;DHT22;6505;51.114;13.128;2023-05-07T05:01:00;16.40;63.30
12874;DHT22;6505;51.114;13.128;2023-05-07T05:03:28;16.50;63.40
12874;DHT22;6505;51.114;13.128;2023-05-07T05:05:59;16.40;63.40
12874;DHT22;6505;51.114;13.128;2023-05-07T05:08:31;16.40;63.30
12874;DHT22;6505;51.114;13.128;2023-05-07T05:11:01;16.40;63.30
12874;DHT22;6505;51.114;13.128;2023-05-07T05:13:31;16.40;63.50
12874;DHT22;6505;51.114;13.128;2023-05-07T05:16:02;16.40;63.50
12874;DHT22;6505;51.114;13.128;2023-05-07T05:18:32;16.40;63.60
12874;DHT22;6505;51.114;13.128;2023-05-07T05:21:01;16.40;63.80
12874;DHT22;6505;51.114;13.128;2023-05-07T05:23:30;16.40;63.90
12874;DHT22;6505;51.114;13.128;2023-05-07T05:25:59;16.40;63.80
12874;DHT22;6505;51.114;13.128;2023-05-07T05:28:30;16.30;63.70
12874;DHT22;6505;51.114;13.128;2023-05-07T05:30:58;16.30;63.60
12874;DHT22;6505;51.114;13.128;2023-05-07T05:33:29;16.30;63.50
12874;DHT22;6505;51.114;13.128;2023-05-07T05:36:04;16.30;63.80
12874;DHT22;6505;51.114;13.128;2023-05-07T05:38:33;16.30;63.90
12874;DHT22;6505;51.114;13.128;2023-05-07T05:41:01;16.30;63.70
12874;DHT22;6505;51.114;13.128;2023-05-07T05:43:29;16.30;63.80
12874;DHT22;6505;51.114;13.128;2023-05-07T05:45:58;16.30;63.80
12874;DHT22;6505;51.114;13.128;2023-05-07T05:48:28;16.40;63.90
12874;DHT22;6505;51.114;13.128;2023-05-07T05:50:57;16.30;63.90
12874;DHT22;6505;51.114;13.128;2023-05-07T05:53:27;16.40;63.70
12874;DHT22;6505;51.114;13.128;2023-05-07T05:55:55;16.30;63.60
12874;DHT22;6505;51.114;13.128;2023-05-07T05:58:23;16.40;63.70
12874;DHT22;6505;51.114;13.128;2023-05-07T06:00:57;16.40;63.40
12874;DHT22;6505;51.114;13.128;2023-05-07T06:03:26;16.40;63.50
12874;DHT22;6505;51.114;13.128;2023-05-07T06:05:56;16.30;63.40
12874;DHT22;6505;51.114;13.128;2023-05-07T06:08:28;16.40;63.30
12874;DHT22;6505;51.114;13.128;2023-05-07T06:10:57;16.30;63.40
12874;DHT22;6505;51.114;13.128;2023-05-07T06:13:26;16.30;63.60
12874;DHT22;6505;51.114;13.128;2023-05-07T06:15:55;16.40;63.40
12874;DHT22;6505;51.114;13.128;2023-05-07T06:18:23;16.40;63.30
12874;DHT22;6505;51.114;13.128;2023-05-07T06:20:51;16.40;63.20
12874;DHT22;6505;51.114;13.128;2023-05-07T06:23:24;16.40;63.20
12874;DHT22;6505;51.114;13.128;2023-05-07T06:25:53;16.40;63.30
12874;DHT22;6505;51.114;13.128;2023-05-07T06:28:26;16.50;64.20
12874;DHT22;6505;51.114;13.128;2023-05-07T06:30:54;16.50;63.10
12874;DHT22;6505;51.114;13.128;2023-05-07T06:33:22;16.50;62.80
12874;DHT22;6505;51.114;13.128;2023-05-07T06:35:51;16.50;62.70
12874;DHT22;6505;51.114;13.128;2023-05-07T06:38:19;16.60;62.80
12874;DHT22;6505;51.114;13.128;2023-05-07T06:40:49;16.60;62.50
12874;DHT22;6505;51.114;13.128;2023-05-07T06:43:18;16.60;62.50
12874;DHT22;6505;51.114;13.128;2023-05-07T06:45:53;16.60;62.00
12874;DHT22;6505;51.114;13.128;2023-05-07T06:48:21;16.60;61.90
12874;DHT22;6505;51.114;13.128;2023-05-07T06:50:56;16.60;62.10
12874;DHT22;6505;51.114;13.128;2023-05-07T06:53:25;16.60;62.00
12874;DHT22;6505;51.114;13.128;2023-05-07T06:55:55;16.60;62.10
12874;DHT22;6505;51.114;13.128;2023-05-07T06:58:25;16.60;61.80
12874;DHT22;6505;51.114;13.128;2023-05-07T07:00:53;16.60;61.40
12874;DHT22;6505;51.114;13.128;2023-05-07T07:03:22;16.60;61.50
12874;DHT22;6505;51.114;13.128;2023-05-07T07:05:51;16.60;61.60
12874;DHT22;6505;51.114;13.128;2023-05-07T07:08:19;16.60;61.30
12874;DHT22;6505;51.114;13.128;2023-05-07T07:10:49;16.60;61.20
12874;DHT22;6505;51.114;13.128;2023-05-07T07:13:16;16.50;61.20
12874;DHT22;6505;51.114;13.128;2023-05-07T07:15:47;16.50;61.20
12874;DHT22;6505;51.114;13.128;2023-05-07T07:18:16;16.50;61.20
12874;DHT22;6505;51.114;13.128;2023-05-07T07:20:46;16.50;61.20
12874;DHT22;6505;51.114;13.128;2023-05-07T07:23:14;16.50;61.40
12874;DHT22;6505;51.114;13.128;2023-05-07T07:25:42;16.50;61.20
12874;DHT22;6505;51.114;13.128;2023-05-07T07:28:10;16.50;60.80
12874;DHT22;6505;51.114;13.128;2023-05-07T07:30:39;16.60;60.80
12874;DHT22;6505;51.114;13.128;2023-05-07T07:33:08;16.60;60.90
12874;DHT22;6505;51.114;13.128;2023-05-07T07:35:37;16.60;60.20
12874;DHT22;6505;51.114;13.128;2023-05-07T07:38:06;16.60;60.00
12874;DHT22;6505;51.114;13.128;2023-05-07T07:40:34;16.60;60.10
12874;DHT22;6505;51.114;13.128;2023-05-07T07:43:04;16.60;59.90
12874;DHT22;6505;51.114;13.128;2023-05-07T07:45:32;16.60;60.00
12874;DHT22;6505;51.114;13.128;2023-05-07T07:48:01;16.60;60.10
12874;DHT22;6505;51.114;13.128;2023-05-07T07:50:34;16.60;59.60
12874;DHT22;6505;51.114;13.128;2023-05-07T07:53:12;16.60;59.60
12874;DHT22;6505;51.114;13.128;2023-05-07T07:55:41;16.70;59.60
12874;DHT22;6505;51.114;13.128;2023-05-07T07:58:12;16.60;58.80
12874;DHT22;6505;51.114;13.128;2023-05-07T08:00:40;16.60;58.60
12874;DHT22;6505;51.114;13.128;2023-05-07T08:03:09;16.50;58.60
12874;DHT22;6505;51.114;13.128;2023-05-07T08:05:43;16.50;58.90
12874;DHT22;6505;51.114;13.128;2023-05-07T08:08:11;16.50;58.80
12874;DHT22;6505;51.114;13.128;2023-05-07T08:10:41;16.60;58.90
12874;DHT22;6505;51.114;13.128;2023-05-07T08:13:17;16.50;58.60
12874;DHT22;6505;51.114;13.128;2023-05-07T08:15:46;16.50;58.50
12874;DHT22;6505;51.114;13.128;2023-05-07T08:18:14;16.40;58.60
12874;DHT22;6505;51.114;13.128;2023-05-07T08:20:45;16.40;59.00
12874;DHT22;6505;51.114;13.128;2023-05-07T08:23:18;16.40;59.10
12874;DHT22;6505;51.114;13.128;2023-05-07T08:25:46;16.40;58.70
12874;DHT22;6505;51.114;13.128;2023-05-07T08:28:15;16.30;58.80
12874;DHT22;6505;51.114;13.128;2023-05-07T08:30:51;16.40;59.10
12874;DHT22;6505;51.114;13.128;2023-05-07T08:33:19;16.30;59.00
12874;DHT22;6505;51.114;13.128;2023-05-07T08:35:48;16.40;59.50
12874;DHT22;6505;51.114;13.128;2023-05-07T08:38:17;16.30;59.70
12874;DHT22;6505;51.114;13.128;2023-05-07T08:40:45;16.30;59.80
12874;DHT22;6505;51.114;13.128;2023-05-07T08:43:18;16.30;59.60
12874;DHT22;6505;51.114;13.128;2023-05-07T08:45:49;16.30;60.10
12874;DHT22;6505;51.114;13.128;2023-05-07T08:48:25;16.30;60.00
12874;DHT22;6505;51.114;13.128;2023-05-07T08:51:06;16.30;60.20
12874;DHT22;6505;51.114;13.128;2023-05-07T08:53:35;16.30;60.10
12874;DHT22;6505;51.114;13.128;2023-05-07T08:56:05;16.30;60.10
12874;DHT22;6505;51.114;13.128;2023-05-07T08:58:34;16.30;60.60
12874;DHT22;6505;51.114;13.128;2023-05-07T09:01:08;16.30;60.80
12874;DHT22;6505;51.114;13.128;2023-05-07T09:03:38;16.30;60.70
12874;DHT22;6505;51.114;13.128;2023-05-07T09:06:08;16.30;60.30
12874;DHT22;6505;51.114;13.128;2023-05-07T09:08:37;16.20;59.90
12874;DHT22;6505;51.114;13.128;2023-05-07T09:11:06;16.30;59.90
12874;DHT22;6505;51.114;13.128;2023-05-07T09:13:35;16.30;60.10
12874;DHT22;6505;51.114;13.128;2023-05-07T09:16:12;16.30;59.70
12874;DHT22;6505;51.114;13.128;2023-05-07T09:18:43;16.40;60.00
12874;DHT22;6505;51.114;13.128;2023-05-07T09:21:17;16.40;59.50
12874;DHT22;6505;51.114;13.128;2023-05-07T09:23:48;16.30;59.30
12874;DHT22;6505;51.114;13.128;2023-05-07T09:26:21;16.30;59.30
12874;DHT22;6505;51.114;13.128;2023-05-07T09:28:49;16.30;59.10
12874;DHT22;6505;51.114;13.128;2023-05-07T09:31:18;16.30;59.10
12874;DHT22;6505;51.114;13.128;2023-05-07T09:33:48;16.40;59.30
12874;DHT22;6505;51.114;13.128;2023-05-07T09:36:18;16.40;59.30
12874;DHT22;6505;51.114;13.128;2023-05-07T09:38:48;16.40;59.50
12874;DHT22;6505;51.114;13.128;2023-05-07T09:41:18;16.40;59.60
12874;DHT22;6505;51.114;13.128;2023-05-07T09:44:01;16.40;59.30
12874;DHT22;6505;51.114;13.128;2023-05-07T09:46:38;16.40;59.60
12874;DHT22;6505;51.114;13.128;2023-05-07T09:49:21;16.40;59.80
12874;DHT22;6505;51.114;13.128;2023-05-07T09:52:00;16.50;59.80
12874;DHT22;6505;51.114;13.128;2023-05-07T09:54:33;16.50;59.50
12874;DHT22;6505;51.114;13.128;2023-05-07T09:57:02;16.60;59.30
12874;DHT22;6505;51.114;13.128;2023-05-07T09:59:32;16.50;59.10
12874;DHT22;6505;51.114;13.128;2023-05-07T10:02:04;16.60;59.30
12874;DHT22;6505;51.114;13.128;2023-05-07T10:04:39;16.60;58.90
12874;DHT22;6505;51.114;13.128;2023-05-07T10:07:10;16.60;58.90
12874;DHT22;6505;51.114;13.128;2023-05-07T10:09:39;16.60;59.00
12874;DHT22;6505;51.114;13.128;2023-05-07T10:12:14;16.60;59.10
12874;DHT22;6505;51.114;13.128;2023-05-07T10:14:45;16.70;59.10
12874;DHT22;6505;51.114;13.128;2023-05-07T10:17:16;16.70;58.40
12874;DHT22;6505;51.114;13.128;2023-05-07T10:19:46;16.70;57.60
12874;DHT22;6505;51.114;13.128;2023-05-07T10:22:16;16.70;58.00
12874;DHT22;6505;51.114;13.128;2023-05-07T10:24:49;16.70;58.10
12874;DHT22;6505;51.114;13.128;2023-05-07T10:27:21;16.70;58.40
12874;DHT22;6505;51.114;13.128;2023-05-07T10:30:00;16.70;58.40
12874;DHT22;6505;51.114;13.128;2023-05-07T10:32:39;16.70;58.50
12874;DHT22;6505;51.114;13.128;2023-05-07T10:35:18;16.70;58.50
12874;DHT22;6505;51.114;13.128;2023-05-07T10:37:51;16.80;59.80
12874;DHT22;6505;51.114;13.128;2023-05-07T10:40:21;16.80;59.00
12874;DHT22;6505;51.114;13.128;2023-05-07T10:42:55;16.80;58.80
12874;DHT22;6505;51.114;13.128;2023-05-07T10:45:25;16.80;58.50
12874;DHT22;6505;51.114;13.128;2023-05-07T10:48:09;16.90;58.70
12874;DHT22;6505;51.114;13.128;2023-05-07T10:51:19;16.80;58.50
12874;DHT22;6505;51.114;13.128;2023-05-07T10:54:20;16.90;58.50
12874;DHT22;6505;51.114;13.128;2023-05-07T10:56:56;16.80;58.30
12874;DHT22;6505;51.114;13.128;2023-05-07T11:02:16;16.90;58.60
12874;DHT22;6505;51.114;13.128;2023-05-07T11:05:19;16.90;58.40
12874;DHT22;6505;51.114;13.128;2023-05-07T11:07:57;16.90;59.40
12874;DHT22;6505;51.114;13.128;2023-05-07T11:13:43;16.90;58.30
12874;DHT22;6505;51.114;13.128;2023-05-07T11:16:38;16.90;57.90
12874;DHT22;6505;51.114;13.128;2023-05-07T11:19:49;16.90;57.60
12874;DHT22;6505;51.114;13.128;2023-05-07T11:22:36;16.80;57.50
12874;DHT22;6505;51.114;13.128;2023-05-07T11:25:38;16.90;57.90
12874;DHT22;6505;51.114;13.128;2023-05-07T11:28:13;16.90;57.30
12874;DHT22;6505;51.114;13.128;2023-05-07T11:30:54;16.90;57.70
12874;DHT22;6505;51.114;13.128;2023-05-07T11:33:24;17.00;58.10
12874;DHT22;6505;51.114;13.128;2023-05-07T11:35:55;16.90;57.50
12874;DHT22;6505;51.114;13.128;2023-05-07T11:38:30;17.00;57.80
12874;DHT22;6505;51.114;13.128;2023-05-07T11:40:59;17.10;57.70
12874;DHT22;6505;51.114;13.128;2023-05-07T11:43:29;17.10;57.20
12874;DHT22;6505;51.114;13.128;2023-05-07T11:46:05;17.10;57.10
12874;DHT22;6505;51.114;13.128;2023-05-07T11:48:34;17.10;56.80
12874;DHT22;6505;51.114;13.128;2023-05-07T11:51:04;17.10;57.00
12874;DHT22;6505;51.114;13.128;2023-05-07T11:53:37;17.10;56.80
12874;DHT22;6505;51.114;13.128;2023-05-07T11:56:07;17.20;56.90
12874;DHT22;6505;51.114;13.128;2023-05-07T11:58:35;17.20;56.80
12874;DHT22;6505;51.114;13.128;2023-05-07T12:01:07;17.20;56.00
12874;DHT22;6505;51.114;13.128;2023-05-07T12:03:39;17.20;56.10
12874;DHT22;6505;51.114;13.128;2023-05-07T12:06:10;17.20;55.70
12874;DHT22;6505;51.114;13.128;2023-05-07T12:08:40;17.20;55.70
12874;DHT22;6505;51.114;13.128;2023-05-07T12:11:14;17.20;55.60
12874;DHT22;6505;51.114;13.128;2023-05-07T12:13:44;17.20;55.90
12874;DHT22;6505;51.114;13.128;2023-05-07T12:16:14;17.20;56.10
12874;DHT22;6505;51.114;13.128;2023-05-07T12:18:42;17.20;55.80
12874;DHT22;6505;51.114;13.128;2023-05-07T12:21:11;17.20;56.10
12874;DHT22;6505;51.114;13.128;2023-05-07T12:23:40;17.30;56.20
12874;DHT22;6505;51.114;13.128;2023-05-07T12:26:08;17.20;55.90
12874;DHT22;6505;51.114;13.128;2023-05-07T12:28:37;17.20;55.90
12874;DHT22;6505;51.114;13.128;2023-05-07T12:31:06;17.30;56.00
12874;DHT22;6505;51.114;13.128;2023-05-07T12:33:36;17.20;55.80
12874;DHT22;6505;51.114;13.128;2023-05-07T12:36:06;17.30;55.70
12874;DHT22;6505;51.114;13.128;2023-05-07T12:38:36;17.30;55.70
12874;DHT22;6505;51.114;13.128;2023-05-07T12:41:06;17.30;55.90
12874;DHT22;6505;51.114;13.128;2023-05-07T12:43:35;17.40;55.90
12874;DHT22;6505;51.114;13.128;2023-05-07T12:46:04;17.40;56.10
12874;DHT22;6505;51.114;13.128;2023-05-07T12:48:37;17.40;56.40
12874;DHT22;6505;51.114;13.128;2023-05-07T12:51:06;17.50;56.10
12874;DHT22;6505;51.114;13.128;2023-05-07T12:53:40;17.50;56.00
12874;DHT22;6505;51.114;13.128;2023-05-07T12:56:09;17.50;56.10
12874;DHT22;6505;51.114;13.128;2023-05-07T12:58:37;17.60;56.50
12874;DHT22;6505;51.114;13.128;2023-05-07T13:01:06;17.60;55.80
12874;DHT22;6505;51.114;13.128;2023-05-07T13:03:38;17.60;55.60
12874;DHT22;6505;51.114;13.128;2023-05-07T13:06:08;17.60;55.10
12874;DHT22;6505;51.114;13.128;2023-05-07T13:08:40;17.60;55.80
12874;DHT22;6505;51.114;13.128;2023-05-07T13:11:10;17.70;55.60
12874;DHT22;6505;51.114;13.128;2023-05-07T13:13:40;17.60;55.30
12874;DHT22;6505;51.114;13.128;2023-05-07T13:16:10;17.70;55.80
12874;DHT22;6505;51.114;13.128;2023-05-07T13:18:40;17.60;55.60
12874;DHT22;6505;51.114;13.128;2023-05-07T13:21:10;17.70;55.60
12874;DHT22;6505;51.114;13.128;2023-05-07T13:23:39;17.60;55.60
12874;DHT22;6505;51.114;13.128;2023-05-07T13:26:07;17.70;55.60
12874;DHT22;6505;51.114;13.128;2023-05-07T13:28:52;17.70;55.80
12874;DHT22;6505;51.114;13.128;2023-05-07T13:31:20;17.70;55.60
12874;DHT22;6505;51.114;13.128;2023-05-07T13:33:49;17.80;55.50
12874;DHT22;6505;51.114;13.128;2023-05-07T13:36:19;17.80;55.00
12874;DHT22;6505;51.114;13.128;2023-05-07T13:38:47;17.70;55.10
12874;DHT22;6505;51.114;13.128;2023-05-07T13:41:15;17.80;55.10
12874;DHT22;6505;51.114;13.128;2023-05-07T13:43:43;17.80;55.00
12874;DHT22;6505;51.114;13.128;2023-05-07T13:46:11;17.80;55.60
12874;DHT22;6505;51.114;13.128;2023-05-07T13:48:39;17.80;55.50
12874;DHT22;6505;51.114;13.128;2023-05-07T13:51:09;17.80;55.30
12874;DHT22;6505;51.114;13.128;2023-05-07T13:53:36;17.80;55.80
12874;DHT22;6505;51.114;13.128;2023-05-07T13:56:05;17.90;55.60
12874;DHT22;6505;51.114;13.128;2023-05-07T13:58:33;17.80;55.10
12874;DHT22;6505;51.114;13.128;2023-05-07T14:01:14;17.80;55.00
12874;DHT22;6505;51.114;13.128;2023-05-07T14:03:42;17.80;55.50
12874;DHT22;6505;51.114;13.128;2023-05-07T14:06:11;17.80;55.30
12874;DHT22;6505;51.114;13.128;2023-05-07T14:08:39;17.80;55.40
12874;DHT22;6505;51.114;13.128;2023-05-07T14:11:07;17.90;55.60
12874;DHT22;6505;51.114;13.128;2023-05-07T14:13:35;17.90;55.70
12874;DHT22;6505;51.114;13.128;2023-05-07T14:16:04;17.90;55.40
12874;DHT22;6505;51.114;13.128;2023-05-07T14:18:32;17.90;55.10
12874;DHT22;6505;51.114;13.128;2023-05-07T14:21:04;18.00;55.40
12874;DHT22;6505;51.114;13.128;2023-05-07T14:23:35;17.90;55.70
12874;DHT22;6505;51.114;13.128;2023-05-07T14:26:03;17.90;55.80
12874;DHT22;6505;51.114;13.128;2023-05-07T14:28:32;17.90;55.00
12874;DHT22;6505;51.114;13.128;2023-05-07T14:31:00;17.90;54.40
12874;DHT22;6505;51.114;13.128;2023-05-07T14:33:28;17.90;54.90
12874;DHT22;6505;51.114;13.128;2023-05-07T14:35:56;18.00;54.80
12874;DHT22;6505;51.114;13.128;2023-05-07T14:38:24;17.90;54.90
12874;DHT22;6505;51.114;13.128;2023-05-07T14:40:53;18.00;54.80
12874;DHT22;6505;51.114;13.128;2023-05-07T14:43:22;18.00;54.70
12874;DHT22;6505;51.114;13.128;2023-05-07T14:45:51;18.00;54.90
12874;DHT22;6505;51.114;13.128;2023-05-07T14:48:19;18.00;54.60
12874;DHT22;6505;51.114;13.128;2023-05-07T14:50:47;18.10;54.50
12874;DHT22;6505;51.114;13.128;2023-05-07T14:53:15;18.10;54.70
12874;DHT22;6505;51.114;13.128;2023-05-07T14:55:43;18.10;54.60
12874;DHT22;6505;51.114;13.128;2023-05-07T14:58:13;18.10;55.10
12874;DHT22;6505;51.114;13.128;2023-05-07T15:00:41;18.10;54.60
12874;DHT22;6505;51.114;13.128;2023-05-07T15:03:09;18.00;54.50
12874;DHT22;6505;51.114;13.128;2023-05-07T15:05:41;18.00;54.90
12874;DHT22;6505;51.114;13.128;2023-05-07T15:08:09;18.10;54.20
12874;DHT22;6505;51.114;13.128;2023-05-07T15:10:37;18.10;54.10
12874;DHT22;6505;51.114;13.128;2023-05-07T15:13:08;18.00;54.10
12874;DHT22;6505;51.114;13.128;2023-05-07T15:15:43;18.00;54.10
12874;DHT22;6505;51.114;13.128;2023-05-07T15:18:12;18.00;54.10
12874;DHT22;6505;51.114;13.128;2023-05-07T15:20:40;18.10;54.20
12874;DHT22;6505;51.114;13.128;2023-05-07T15:23:09;18.00;53.80
12874;DHT22;6505;51.114;13.128;2023-05-07T15:25:39;18.00;54.00
12874;DHT22;6505;51.114;13.128;2023-05-07T15:28:07;18.00;53.80
12874;DHT22;6505;51.114;13.128;2023-05-07T15:30:36;18.10;53.70
12874;DHT22;6505;51.114;13.128;2023-05-07T15:33:05;18.00;53.70
12874;DHT22;6505;51.114;13.128;2023-05-07T15:35:33;18.00;53.60
12874;DHT22;6505;51.114;13.128;2023-05-07T15:38:01;17.90;53.40
12874;DHT22;6505;51.114;13.128;2023-05-07T15:40:30;17.90;53.80
12874;DHT22;6505;51.114;13.128;2023-05-07T15:42:59;17.90;54.00
12874;DHT22;6505;51.114;13.128;2023-05-07T15:45:27;17.90;54.20
12874;DHT22;6505;51.114;13.128;2023-05-07T15:47:55;17.90;54.60
12874;DHT22;6505;51.114;13.128;2023-05-07T15:50:25;17.80;54.30
12874;DHT22;6505;51.114;13.128;2023-05-07T15:52:53;17.90;54.70
12874;DHT22;6505;51.114;13.128;2023-05-07T15:55:21;17.90;54.70
12874;DHT22;6505;51.114;13.128;2023-05-07T15:57:49;17.90;55.00